Bayshore, New York
Current Conditions -  °F | °C
As of 6:53 AM on Sunday 23 Nov 2014 (Local Time) from KFRG Reporting Station
Overcast Overcast  
Wind Chill: 40°   Ceiling: 10000
Heat Index: 45°   Visibility: 10mi
Dew Point: 25°   Wind: 10mph
Humidity: 46%   Direction: 240°WSW
Pressure: 30.2"   Gusts: NA
Location:  40.7379°N, 73.2632°W
Report Text: KFRG 231153Z 24009KT 10SM OVC100 07/M04 A3020 RMK AO2 SLP227 T00721039 10078 20067 51010
Loading
Personal Weather Stations






























Interactive Weather Map New forecast layout! Learn more

10-Day Weather Forecast

Advertisements
Track Severe Weather on mobile